sensor_id;sensor_type;location;lat;lon;timestamp;pressure;altitude;pressure_sealevel;temperature;humidity
54948;BME280;41113;41.882;12.530;2023-07-08T00:00:23;101432.25;;;26.71;58.64
54948;BME280;41113;41.882;12.530;2023-07-08T00:02:52;101445.84;;;26.66;58.86
54948;BME280;41113;41.882;12.530;2023-07-08T00:05:18;101456.88;;;26.66;59.81
54948;BME280;41113;41.882;12.530;2023-07-08T00:07:45;101443.16;;;26.84;57.66
54948;BME280;41113;41.882;12.530;2023-07-08T00:10:25;101434.56;;;26.99;58.15
54948;BME280;41113;41.882;12.530;2023-07-08T00:12:56;101432.53;;;27.13;56.79
54948;BME280;41113;41.882;12.530;2023-07-08T00:15:25;101416.53;;;27.21;56.30
54948;BME280;41113;41.882;12.530;2023-07-08T00:17:51;101359.59;;;27.27;56.52
54948;BME280;41113;41.882;12.530;2023-07-08T00:22:47;101365.16;;;26.59;59.51
54948;BME280;41113;41.882;12.530;2023-07-08T00:25:15;101349.03;;;26.31;60.79
54948;BME280;41113;41.882;12.530;2023-07-08T00:27:41;101318.31;;;26.34;60.19
54948;BME280;41113;41.882;12.530;2023-07-08T00:30:19;101253.72;;;26.37;60.63
54948;BME280;41113;41.882;12.530;2023-07-08T00:32:45;101230.75;;;26.43;59.69
54948;BME280;41113;41.882;12.530;2023-07-08T00:35:10;101248.06;;;26.50;59.05
54948;BME280;41113;41.882;12.530;2023-07-08T00:37:36;101262.19;;;26.28;60.49
54948;BME280;41113;41.882;12.530;2023-07-08T00:40:08;101262.41;;;26.33;59.65
54948;BME280;41113;41.882;12.530;2023-07-08T00:42:38;101244.75;;;26.41;59.16
54948;BME280;41113;41.882;12.530;2023-07-08T00:45:32;101229.06;;;26.42;60.10
54948;BME280;41113;41.882;12.530;2023-07-08T00:48:07;101244.59;;;26.54;58.92
54948;BME280;41113;41.882;12.530;2023-07-08T00:50:33;101256.69;;;26.28;60.17
54948;BME280;41113;41.882;12.530;2023-07-08T00:55:43;101274.09;;;26.04;60.97
54948;BME280;41113;41.882;12.530;2023-07-08T00:58:08;101302.75;;;25.90;61.46
54948;BME280;41113;41.882;12.530;2023-07-08T01:00:33;101333.34;;;25.75;62.58
54948;BME280;41113;41.882;12.530;2023-07-08T01:02:59;101370.53;;;25.84;61.59
54948;BME280;41113;41.882;12.530;2023-07-08T01:05:27;101389.94;;;25.96;61.72
54948;BME280;41113;41.882;12.530;2023-07-08T01:07:58;101417.47;;;25.96;61.57
54948;BME280;41113;41.882;12.530;2023-07-08T01:10:53;101442.41;;;26.01;61.38
54948;BME280;41113;41.882;12.530;2023-07-08T01:13:18;101460.78;;;26.14;60.02
54948;BME280;41113;41.882;12.530;2023-07-08T01:15:47;101484.72;;;26.13;60.34
54948;BME280;41113;41.882;12.530;2023-07-08T01:18:16;101494.50;;;26.09;60.34
54948;BME280;41113;41.882;12.530;2023-07-08T01:20:43;101489.63;;;26.11;60.06
54948;BME280;41113;41.882;12.530;2023-07-08T01:23:10;101487.47;;;26.13;60.86
54948;BME280;41113;41.882;12.530;2023-07-08T01:25:36;101482.22;;;26.05;60.60
54948;BME280;41113;41.882;12.530;2023-07-08T01:28:02;101471.84;;;26.00;61.28
54948;BME280;41113;41.882;12.530;2023-07-08T01:30:29;101468.69;;;25.97;61.26
54948;BME280;41113;41.882;12.530;2023-07-08T01:33:01;101471.44;;;26.03;61.48
54948;BME280;41113;41.882;12.530;2023-07-08T01:35:28;101468.66;;;26.10;60.85
54948;BME280;41113;41.882;12.530;2023-07-08T01:37:57;101430.91;;;26.17;61.58
54948;BME280;41113;41.882;12.530;2023-07-08T01:42:51;101402.34;;;25.73;63.65
54948;BME280;41113;41.882;12.530;2023-07-08T01:45:18;101378.47;;;25.54;63.76
54948;BME280;41113;41.882;12.530;2023-07-08T01:47:51;101403.28;;;25.34;64.78
54948;BME280;41113;41.882;12.530;2023-07-08T01:50:20;101416.81;;;25.49;63.95
54948;BME280;41113;41.882;12.530;2023-07-08T01:52:47;101414.22;;;25.54;64.31
54948;BME280;41113;41.882;12.530;2023-07-08T01:55:13;101409.19;;;25.44;64.76
54948;BME280;41113;41.882;12.530;2023-07-08T01:57:38;101416.19;;;25.34;65.72
54948;BME280;41113;41.882;12.530;2023-07-08T02:00:05;101417.09;;;25.15;67.08
54948;BME280;41113;41.882;12.530;2023-07-08T02:02:31;101419.00;;;25.01;67.58
54948;BME280;41113;41.882;12.530;2023-07-08T02:04:56;101411.38;;;24.96;67.79
54948;BME280;41113;41.882;12.530;2023-07-08T02:07:21;101401.03;;;24.92;68.50
54948;BME280;41113;41.882;12.530;2023-07-08T02:09:47;101404.63;;;24.92;67.43
54948;BME280;41113;41.882;12.530;2023-07-08T02:12:12;101400.16;;;24.98;68.42
54948;BME280;41113;41.882;12.530;2023-07-08T02:14:37;101395.75;;;24.90;67.18
54948;BME280;41113;41.882;12.530;2023-07-08T02:17:03;101399.97;;;24.93;67.70
54948;BME280;41113;41.882;12.530;2023-07-08T02:19:31;101391.53;;;24.88;68.64
54948;BME280;41113;41.882;12.530;2023-07-08T02:21:56;101394.69;;;24.91;67.42
54948;BME280;41113;41.882;12.530;2023-07-08T02:24:22;101401.25;;;24.90;68.37
54948;BME280;41113;41.882;12.530;2023-07-08T02:26:48;101414.34;;;24.95;68.24
54948;BME280;41113;41.882;12.530;2023-07-08T02:29:14;101411.38;;;24.96;67.65
54948;BME280;41113;41.882;12.530;2023-07-08T02:31:39;101417.72;;;25.03;66.82
54948;BME280;41113;41.882;12.530;2023-07-08T02:34:05;101417.72;;;25.17;66.60
54948;BME280;41113;41.882;12.530;2023-07-08T02:36:30;101411.59;;;25.15;67.26
54948;BME280;41113;41.882;12.530;2023-07-08T02:38:55;101403.78;;;25.11;67.45
54948;BME280;41113;41.882;12.530;2023-07-08T02:41:21;101395.56;;;25.05;66.93
54948;BME280;41113;41.882;12.530;2023-07-08T02:43:46;101390.69;;;25.07;66.71
54948;BME280;41113;41.882;12.530;2023-07-08T02:46:12;101391.53;;;25.07;66.83
54948;BME280;41113;41.882;12.530;2023-07-08T02:48:37;101375.88;;;24.95;67.05
54948;BME280;41113;41.882;12.530;2023-07-08T02:51:04;101362.78;;;24.90;67.58
54948;BME280;41113;41.882;12.530;2023-07-08T02:53:30;101356.88;;;24.87;67.61
54948;BME280;41113;41.882;12.530;2023-07-08T02:55:55;101348.19;;;24.90;67.58
54948;BME280;41113;41.882;12.530;2023-07-08T02:58:21;101334.69;;;24.81;68.02
54948;BME280;41113;41.882;12.530;2023-07-08T03:00:56;101327.31;;;24.62;69.80
54948;BME280;41113;41.882;12.530;2023-07-08T03:03:24;101321.81;;;24.56;70.06
54948;BME280;41113;41.882;12.530;2023-07-08T03:05:57;101302.78;;;24.61;69.85
54948;BME280;41113;41.882;12.530;2023-07-08T03:08:24;101293.72;;;24.60;70.02
54948;BME280;41113;41.882;12.530;2023-07-08T03:10:57;101287.59;;;24.58;69.20
54948;BME280;41113;41.882;12.530;2023-07-08T03:13:24;101278.50;;;24.58;69.63
54948;BME280;41113;41.882;12.530;2023-07-08T03:15:49;101271.97;;;24.59;69.11
54948;BME280;41113;41.882;12.530;2023-07-08T03:18:15;101276.59;;;24.58;68.99
54948;BME280;41113;41.882;12.530;2023-07-08T03:20:41;101273.66;;;24.60;68.89
54948;BME280;41113;41.882;12.530;2023-07-08T03:23:06;101264.78;;;24.58;69.07
54948;BME280;41113;41.882;12.530;2023-07-08T03:25:32;101257.59;;;24.57;69.03
54948;BME280;41113;41.882;12.530;2023-07-08T03:27:57;101241.97;;;24.57;68.93
54948;BME280;41113;41.882;12.530;2023-07-08T03:30:23;101244.47;;;24.65;68.65
54948;BME280;41113;41.882;12.530;2023-07-08T03:32:48;101246.16;;;24.66;68.00
54948;BME280;41113;41.882;12.530;2023-07-08T03:35:14;101261.16;;;24.70;68.34
54948;BME280;41113;41.882;12.530;2023-07-08T03:37:41;101270.31;;;24.44;69.20
54948;BME280;41113;41.882;12.530;2023-07-08T03:40:08;101276.19;;;24.35;70.13
54948;BME280;41113;41.882;12.530;2023-07-08T03:42:35;101273.66;;;24.33;70.24
54948;BME280;41113;41.882;12.530;2023-07-08T03:45:00;101266.47;;;24.19;71.09
54948;BME280;41113;41.882;12.530;2023-07-08T03:47:26;101263.31;;;24.22;70.77
54948;BME280;41113;41.882;12.530;2023-07-08T03:49:51;101257.63;;;24.30;70.87
54948;BME280;41113;41.882;12.530;2023-07-08T03:52:16;101267.13;;;24.28;69.98
54948;BME280;41113;41.882;12.530;2023-07-08T03:54:42;101271.13;;;24.38;69.59
54948;BME280;41113;41.882;12.530;2023-07-08T03:57:08;101271.56;;;24.42;69.91
54948;BME280;41113;41.882;12.530;2023-07-08T03:59:33;101271.13;;;24.38;70.09
54948;BME280;41113;41.882;12.530;2023-07-08T04:01:58;101272.00;;;24.45;69.48
54948;BME280;41113;41.882;12.530;2023-07-08T04:04:24;101265.63;;;24.51;69.53
54948;BME280;41113;41.882;12.530;2023-07-08T04:06:49;101268.59;;;24.57;69.05
54948;BME280;41113;41.882;12.530;2023-07-08T04:09:15;101276.41;;;24.46;69.73
54948;BME280;41113;41.882;12.530;2023-07-08T04:11:41;101285.06;;;24.37;69.66
54948;BME280;41113;41.882;12.530;2023-07-08T04:14:08;101289.28;;;24.72;68.11
54948;BME280;41113;41.882;12.530;2023-07-08T04:16:50;101292.88;;;25.31;66.11
54948;BME280;41113;41.882;12.530;2023-07-08T04:19:16;101281.31;;;25.22;66.19
54948;BME280;41113;41.882;12.530;2023-07-08T04:21:43;101282.03;;;25.04;66.63
54948;BME280;41113;41.882;12.530;2023-07-08T04:24:10;101281.81;;;24.99;67.40
54948;BME280;41113;41.882;12.530;2023-07-08T04:26:36;101272.72;;;24.92;67.02
54948;BME280;41113;41.882;12.530;2023-07-08T04:29:06;101274.22;;;24.88;67.31
54948;BME280;41113;41.882;12.530;2023-07-08T04:31:32;101274.63;;;24.92;67.02
54948;BME280;41113;41.882;12.530;2023-07-08T04:33:57;101275.47;;;25.05;66.18
54948;BME280;41113;41.882;12.530;2023-07-08T04:36:23;101273.13;;;25.09;66.18
54948;BME280;41113;41.882;12.530;2023-07-08T04:38:50;101268.06;;;24.99;66.89
54948;BME280;41113;41.882;12.530;2023-07-08T04:41:15;101260.31;;;24.76;67.35
54948;BME280;41113;41.882;12.530;2023-07-08T04:43:40;101266.38;;;24.92;66.44
54948;BME280;41113;41.882;12.530;2023-07-08T04:46:17;101268.91;;;25.00;66.74
54948;BME280;41113;41.882;12.530;2023-07-08T04:48:44;101264.66;;;25.10;66.17
54948;BME280;41113;41.882;12.530;2023-07-08T04:51:10;101267.81;;;25.90;63.74
54948;BME280;41113;41.882;12.530;2023-07-08T04:53:36;101260.81;;;26.19;62.43
54948;BME280;41113;41.882;12.530;2023-07-08T04:56:01;101266.81;;;25.85;63.12
54948;BME280;41113;41.882;12.530;2023-07-08T04:58:27;101276.25;;;26.20;62.53
54948;BME280;41113;41.882;12.530;2023-07-08T05:00:52;101272.09;;;26.97;60.50
54948;BME280;41113;41.882;12.530;2023-07-08T05:03:17;101268.22;;;27.72;58.27
54948;BME280;41113;41.882;12.530;2023-07-08T05:05:43;101266.78;;;28.46;54.35
54948;BME280;41113;41.882;12.530;2023-07-08T05:08:08;101273.00;;;29.40;52.15
54948;BME280;41113;41.882;12.530;2023-07-08T05:10:34;101278.81;;;30.62;50.63
54948;BME280;41113;41.882;12.530;2023-07-08T05:13:00;101281.53;;;31.88;47.51
54948;BME280;41113;41.882;12.530;2023-07-08T05:15:25;101285.91;;;32.16;45.53
54948;BME280;41113;41.882;12.530;2023-07-08T05:17:51;101294.19;;;32.06;46.58
54948;BME280;41113;41.882;12.530;2023-07-08T05:20:17;101296.50;;;32.52;45.41
54948;BME280;41113;41.882;12.530;2023-07-08T05:22:44;101305.72;;;32.94;44.71
54948;BME280;41113;41.882;12.530;2023-07-08T05:25:11;101310.44;;;33.51;43.86
54948;BME280;41113;41.882;12.530;2023-07-08T05:27:37;101310.00;;;34.00;42.64
54948;BME280;41113;41.882;12.530;2023-07-08T05:30:04;101322.03;;;34.46;41.34
54948;BME280;41113;41.882;12.530;2023-07-08T05:32:30;101325.66;;;34.47;41.48
54948;BME280;41113;41.882;12.530;2023-07-08T05:34:56;101332.84;;;34.99;40.92
54948;BME280;41113;41.882;12.530;2023-07-08T05:37:21;101340.13;;;34.94;40.99
54948;BME280;41113;41.882;12.530;2023-07-08T05:39:50;101343.88;;;35.44;36.86
54948;BME280;41113;41.882;12.530;2023-07-08T05:42:15;101351.88;;;34.61;40.84
54948;BME280;41113;41.882;12.530;2023-07-08T05:44:41;101369.38;;;33.90;41.46
54948;BME280;41113;41.882;12.530;2023-07-08T05:47:06;101374.47;;;34.85;39.60
54948;BME280;41113;41.882;12.530;2023-07-08T05:49:31;101381.34;;;35.28;39.33
54948;BME280;41113;41.882;12.530;2023-07-08T05:51:57;101376.69;;;35.78;38.70
54948;BME280;41113;41.882;12.530;2023-07-08T05:54:22;101372.88;;;36.13;37.48
54948;BME280;41113;41.882;12.530;2023-07-08T05:56:47;101367.13;;;36.28;37.65
54948;BME280;41113;41.882;12.530;2023-07-08T05:59:13;101365.69;;;36.99;36.47
54948;BME280;41113;41.882;12.530;2023-07-08T06:01:38;101368.56;;;37.18;36.10
54948;BME280;41113;41.882;12.530;2023-07-08T06:04:03;101371.31;;;36.36;37.19
54948;BME280;41113;41.882;12.530;2023-07-08T06:06:29;101376.13;;;34.45;39.67
54948;BME280;41113;41.882;12.530;2023-07-08T06:08:54;101373.03;;;35.03;39.19
54948;BME280;41113;41.882;12.530;2023-07-08T06:11:20;101375.53;;;35.89;37.20
54948;BME280;41113;41.882;12.530;2023-07-08T06:13:47;101374.63;;;35.29;36.85
54948;BME280;41113;41.882;12.530;2023-07-08T06:16:12;101370.81;;;34.74;36.05
54948;BME280;41113;41.882;12.530;2023-07-08T06:18:37;101366.66;;;33.38;39.22
54948;BME280;41113;41.882;12.530;2023-07-08T06:21:03;101358.25;;;31.95;42.50
54948;BME280;41113;41.882;12.530;2023-07-08T06:23:29;101359.84;;;31.03;43.89
54948;BME280;41113;41.882;12.530;2023-07-08T06:25:55;101350.59;;;31.80;42.89
54948;BME280;41113;41.882;12.530;2023-07-08T06:28:21;101354.88;;;32.84;41.37
54948;BME280;41113;41.882;12.530;2023-07-08T06:30:47;101355.75;;;34.19;39.29
54948;BME280;41113;41.882;12.530;2023-07-08T06:33:13;101357.22;;;33.49;38.83
54948;BME280;41113;41.882;12.530;2023-07-08T06:35:40;101360.97;;;32.16;41.51
54948;BME280;41113;41.882;12.530;2023-07-08T06:38:06;101372.09;;;31.07;44.67
54948;BME280;41113;41.882;12.530;2023-07-08T06:40:32;101372.22;;;30.95;45.20
54948;BME280;41113;41.882;12.530;2023-07-08T06:42:58;101379.31;;;30.70;46.08
54948;BME280;41113;41.882;12.530;2023-07-08T06:45:23;101374.69;;;31.31;44.65
54948;BME280;41113;41.882;12.530;2023-07-08T06:47:49;101372.19;;;31.73;43.70
54948;BME280;41113;41.882;12.530;2023-07-08T06:50:14;101367.47;;;31.73;43.94
54948;BME280;41113;41.882;12.530;2023-07-08T06:52:40;101369.16;;;32.01;43.55
54948;BME280;41113;41.882;12.530;2023-07-08T06:55:07;101375.78;;;32.22;43.19
54948;BME280;41113;41.882;12.530;2023-07-08T06:57:33;101371.97;;;31.79;43.97
54948;BME280;41113;41.882;12.530;2023-07-08T06:59:59;101369.06;;;31.69;44.43
54948;BME280;41113;41.882;12.530;2023-07-08T07:02:26;101375.78;;;31.30;45.33
54948;BME280;41113;41.882;12.530;2023-07-08T07:04:51;101370.06;;;31.58;44.46
54948;BME280;41113;41.882;12.530;2023-07-08T07:07:16;101363.66;;;32.06;43.77
54948;BME280;41113;41.882;12.530;2023-07-08T07:09:42;101378.72;;;32.37;42.98
54948;BME280;41113;41.882;12.530;2023-07-08T07:12:07;101377.78;;;32.59;43.08
54948;BME280;41113;41.882;12.530;2023-07-08T07:14:33;101388.53;;;32.82;42.59
54948;BME280;41113;41.882;12.530;2023-07-08T07:16:59;101393.44;;;32.70;42.50
54948;BME280;41113;41.882;12.530;2023-07-08T07:19:24;101405.56;;;32.54;42.99
54948;BME280;41113;41.882;12.530;2023-07-08T07:21:50;101411.63;;;32.50;43.22
54948;BME280;41113;41.882;12.530;2023-07-08T07:24:16;101427.06;;;32.95;42.54
54948;BME280;41113;41.882;12.530;2023-07-08T07:26:42;101429.97;;;33.16;42.05
54948;BME280;41113;41.882;12.530;2023-07-08T07:29:07;101421.13;;;33.24;41.56
54948;BME280;41113;41.882;12.530;2023-07-08T07:31:32;101417.69;;;33.11;42.01
54948;BME280;41113;41.882;12.530;2023-07-08T07:33:59;101420.34;;;32.91;42.27
54948;BME280;41113;41.882;12.530;2023-07-08T07:36:25;101431.84;;;32.73;41.91
54948;BME280;41113;41.882;12.530;2023-07-08T07:38:50;101421.25;;;32.70;41.78
54948;BME280;41113;41.882;12.530;2023-07-08T07:41:16;101410.47;;;32.46;42.71
54948;BME280;41113;41.882;12.530;2023-07-08T07:43:41;101410.13;;;32.70;42.70
54948;BME280;41113;41.882;12.530;2023-07-08T07:46:06;101407.03;;;32.98;42.00
54948;BME280;41113;41.882;12.530;2023-07-08T07:48:33;101411.44;;;32.89;42.41
54948;BME280;41113;41.882;12.530;2023-07-08T07:50:59;101411.44;;;32.89;42.46
54948;BME280;41113;41.882;12.530;2023-07-08T07:53:25;101409.75;;;32.56;42.72
54948;BME280;41113;41.882;12.530;2023-07-08T07:55:58;101408.13;;;32.92;42.16
54948;BME280;41113;41.882;12.530;2023-07-08T07:58:24;101407.44;;;32.48;43.26
54948;BME280;41113;41.882;12.530;2023-07-08T08:00:49;101414.81;;;32.32;43.34
54948;BME280;41113;41.882;12.530;2023-07-08T08:03:16;101402.41;;;32.45;43.48
54948;BME280;41113;41.882;12.530;2023-07-08T08:05:42;101406.34;;;32.49;43.54
54948;BME280;41113;41.882;12.530;2023-07-08T08:08:07;101410.94;;;32.97;42.71
54948;BME280;41113;41.882;12.530;2023-07-08T08:10:35;101410.88;;;32.87;42.60
54948;BME280;41113;41.882;12.530;2023-07-08T08:13:00;101407.75;;;32.52;42.85
54948;BME280;41113;41.882;12.530;2023-07-08T08:15:25;101408.75;;;32.40;43.36
54948;BME280;41113;41.882;12.530;2023-07-08T08:17:51;101402.59;;;32.33;43.20
54948;BME280;41113;41.882;12.530;2023-07-08T08:20:18;101407.47;;;32.80;42.85
54948;BME280;41113;41.882;12.530;2023-07-08T08:22:45;101400.94;;;32.69;42.94
54948;BME280;41113;41.882;12.530;2023-07-08T08:25:10;101409.25;;;32.96;42.47
54948;BME280;41113;41.882;12.530;2023-07-08T08:27:36;101400.38;;;32.99;42.48
54948;BME280;41113;41.882;12.530;2023-07-08T08:30:02;101393.91;;;32.89;42.39
54948;BME280;41113;41.882;12.530;2023-07-08T08:32:27;101394.38;;;32.80;43.02
54948;BME280;41113;41.882;12.530;2023-07-08T08:34:52;101401.53;;;33.08;42.40
54948;BME280;41113;41.882;12.530;2023-07-08T08:37:18;101401.63;;;33.19;42.15
54948;BME280;41113;41.882;12.530;2023-07-08T08:39:44;101390.94;;;33.05;42.25
54948;BME280;41113;41.882;12.530;2023-07-08T08:42:33;101384.09;;;32.81;43.04
54948;BME280;41113;41.882;12.530;2023-07-08T08:45:00;101383.63;;;32.89;43.10
54948;BME280;41113;41.882;12.530;2023-07-08T08:50:08;101389.19;;;33.36;42.23
54948;BME280;41113;41.882;12.530;2023-07-08T08:52:39;101397.66;;;33.57;41.53
54948;BME280;41113;41.882;12.530;2023-07-08T08:55:13;101382.34;;;33.59;41.53
54948;BME280;41113;41.882;12.530;2023-07-08T09:00:16;101379.16;;;32.88;42.78
54948;BME280;41113;41.882;12.530;2023-07-08T09:02:59;101383.75;;;33.15;42.62
54948;BME280;41113;41.882;12.530;2023-07-08T09:05:27;101392.81;;;33.37;42.61
54948;BME280;41113;41.882;12.530;2023-07-08T09:10:44;101399.88;;;33.13;42.54
54948;BME280;41113;41.882;12.530;2023-07-08T09:13:19;101401.81;;;33.12;42.49
54948;BME280;41113;41.882;12.530;2023-07-08T09:15:48;101402.00;;;33.32;42.55
54948;BME280;41113;41.882;12.530;2023-07-08T09:18:23;101392.81;;;33.37;42.29
54948;BME280;41113;41.882;12.530;2023-07-08T09:20:53;101376.09;;;33.37;42.70
54948;BME280;41113;41.882;12.530;2023-07-08T09:23:25;101366.25;;;33.19;42.95
54948;BME280;41113;41.882;12.530;2023-07-08T09:26:07;101358.19;;;33.23;43.55
54948;BME280;41113;41.882;12.530;2023-07-08T09:28:41;101352.50;;;33.02;43.19
54948;BME280;41113;41.882;12.530;2023-07-08T09:31:10;101357.94;;;33.29;42.77
54948;BME280;41113;41.882;12.530;2023-07-08T09:33:43;101359.25;;;33.17;42.97
54948;BME280;41113;41.882;12.530;2023-07-08T09:36:17;101361.00;;;33.23;42.52
54948;BME280;41113;41.882;12.530;2023-07-08T09:38:46;101367.13;;;33.30;42.59
54948;BME280;41113;41.882;12.530;2023-07-08T09:41:11;101359.75;;;33.03;43.03
54948;BME280;41113;41.882;12.530;2023-07-08T09:43:38;101344.97;;;32.61;44.09
54948;BME280;41113;41.882;12.530;2023-07-08T09:46:04;101343.97;;;32.40;44.71
54948;BME280;41113;41.882;12.530;2023-07-08T09:48:34;101350.03;;;32.69;44.04
54948;BME280;41113;41.882;12.530;2023-07-08T09:51:00;101354.69;;;32.90;43.28
54948;BME280;41113;41.882;12.530;2023-07-08T09:53:27;101339.47;;;33.08;42.97
54948;BME280;41113;41.882;12.530;2023-07-08T09:55:54;101346.97;;;33.07;43.33
54948;BME280;41113;41.882;12.530;2023-07-08T09:58:29;101353.09;;;33.09;43.47
54948;BME280;41113;41.882;12.530;2023-07-08T10:00:57;101355.78;;;32.89;43.87
54948;BME280;41113;41.882;12.530;2023-07-08T10:03:27;101350.25;;;32.94;43.92
54948;BME280;41113;41.882;12.530;2023-07-08T10:05:55;101347.56;;;33.15;43.31
54948;BME280;41113;41.882;12.530;2023-07-08T10:08:34;101347.50;;;32.99;43.81
54948;BME280;41113;41.882;12.530;2023-07-08T10:11:26;101341.56;;;33.33;42.83
54948;BME280;41113;41.882;12.530;2023-07-08T10:13:54;101343.34;;;33.59;42.65
54948;BME280;41113;41.882;12.530;2023-07-08T10:16:25;101342.81;;;33.78;42.37
54948;BME280;41113;41.882;12.530;2023-07-08T10:18:52;101342.63;;;33.94;41.81
54948;BME280;41113;41.882;12.530;2023-07-08T10:21:23;101337.88;;;34.05;41.50
54948;BME280;41113;41.882;12.530;2023-07-08T10:24:00;101338.16;;;33.98;41.46
54948;BME280;41113;41.882;12.530;2023-07-08T10:26:32;101332.31;;;33.95;41.54
54948;BME280;41113;41.882;12.530;2023-07-08T10:31:48;101320.50;;;33.72;42.12
54948;BME280;41113;41.882;12.530;2023-07-08T10:48:44;101335.56;;;33.77;40.77
54948;BME280;41113;41.882;12.530;2023-07-08T10:51:34;101315.47;;;33.59;39.20
54948;BME280;41113;41.882;12.530;2023-07-08T10:57:12;101306.50;;;33.47;40.88
54948;BME280;41113;41.882;12.530;2023-07-08T11:07:45;101330.66;;;34.24;40.09
54948;BME280;41113;41.882;12.530;2023-07-08T11:13:13;101316.16;;;34.22;39.92
54948;BME280;41113;41.882;12.530;2023-07-08T11:18:16;101319.53;;;34.35;39.92
54948;BME280;41113;41.882;12.530;2023-07-08T11:21:02;101312.84;;;34.36;39.58
54948;BME280;41113;41.882;12.530;2023-07-08T11:23:50;101313.94;;;34.35;40.00
54948;BME280;41113;41.882;12.530;2023-07-08T11:28:45;101311.69;;;34.26;40.42
54948;BME280;41113;41.882;12.530;2023-07-08T11:31:12;101307.78;;;33.97;40.24
54948;BME280;41113;41.882;12.530;2023-07-08T11:33:39;101313.91;;;33.89;40.34
54948;BME280;41113;41.882;12.530;2023-07-08T11:36:06;101301.03;;;33.78;40.30
54948;BME280;41113;41.882;12.530;2023-07-08T11:38:33;101293.47;;;33.63;39.47
54948;BME280;41113;41.882;12.530;2023-07-08T11:41:11;101296.56;;;33.82;40.10
54948;BME280;41113;41.882;12.530;2023-07-08T11:43:46;101295.50;;;33.93;39.83
54948;BME280;41113;41.882;12.530;2023-07-08T11:46:20;101286.03;;;33.89;39.59
54948;BME280;41113;41.882;12.530;2023-07-08T11:48:50;101291.34;;;34.00;39.61
54948;BME280;41113;41.882;12.530;2023-07-08T11:51:34;101278.25;;;34.21;39.71
54948;BME280;41113;41.882;12.530;2023-07-08T11:54:17;101294.41;;;34.24;39.19
54948;BME280;41113;41.882;12.530;2023-07-08T11:57:00;101288.00;;;34.34;39.31
54948;BME280;41113;41.882;12.530;2023-07-08T11:59:32;101286.59;;;34.42;39.28
54948;BME280;41113;41.882;12.530;2023-07-08T12:02:15;101287.44;;;34.37;39.35
54948;BME280;41113;41.882;12.530;2023-07-08T12:04:58;101281.56;;;34.28;39.17
54948;BME280;41113;41.882;12.530;2023-07-08T12:07:45;101281.59;;;34.33;39.20
54948;BME280;41113;41.882;12.530;2023-07-08T12:10:22;101277.38;;;34.31;39.02
54948;BME280;41113;41.882;12.530;2023-07-08T12:12:51;101272.66;;;34.26;39.60
54948;BME280;41113;41.882;12.530;2023-07-08T12:15:23;101269.03;;;34.21;39.66
54948;BME280;41113;41.882;12.530;2023-07-08T12:17:56;101273.22;;;34.18;39.86
54948;BME280;41113;41.882;12.530;2023-07-08T12:20:28;101271.53;;;34.12;39.86
54948;BME280;41113;41.882;12.530;2023-07-08T12:22:55;101265.97;;;34.07;40.24
54948;BME280;41113;41.882;12.530;2023-07-08T12:25:25;101277.13;;;34.02;40.20
54948;BME280;41113;41.882;12.530;2023-07-08T12:27:51;101276.56;;;34.10;40.02
54948;BME280;41113;41.882;12.530;2023-07-08T12:30:17;101273.75;;;34.10;40.36
54948;BME280;41113;41.882;12.530;2023-07-08T12:32:44;101270.41;;;34.13;40.14
54948;BME280;41113;41.882;12.530;2023-07-08T12:37:55;101264.84;;;34.03;40.02
54948;BME280;41113;41.882;12.530;2023-07-08T12:40:22;101272.09;;;34.09;39.82
54948;BME280;41113;41.882;12.530;2023-07-08T12:42:49;101267.06;;;34.11;39.42
54948;BME280;41113;41.882;12.530;2023-07-08T12:45:18;101262.63;;;34.15;39.34
54948;BME280;41113;41.882;12.530;2023-07-08T12:47:44;101266.50;;;34.29;39.55
54948;BME280;41113;41.882;12.530;2023-07-08T12:50:11;101265.41;;;34.36;39.36
54948;BME280;41113;41.882;12.530;2023-07-08T12:52:37;101259.25;;;34.28;39.49
54948;BME280;41113;41.882;12.530;2023-07-08T12:55:03;101262.63;;;34.25;39.60
54948;BME280;41113;41.882;12.530;2023-07-08T12:57:28;101261.50;;;34.21;39.51
54948;BME280;41113;41.882;12.530;2023-07-08T12:59:54;101262.06;;;34.23;39.87
54948;BME280;41113;41.882;12.530;2023-07-08T13:02:21;101260.41;;;34.22;40.41
54948;BME280;41113;41.882;12.530;2023-07-08T13:04:51;101252.56;;;34.29;41.03
54948;BME280;41113;41.882;12.530;2023-07-08T13:09:53;101262.34;;;34.27;41.59
54948;BME280;41113;41.882;12.530;2023-07-08T13:12:20;101257.59;;;34.32;42.23
54948;BME280;41113;41.882;12.530;2023-07-08T13:14:52;101266.25;;;34.36;41.98
54948;BME280;41113;41.882;12.530;2023-07-08T13:17:20;101265.13;;;34.32;42.48
54948;BME280;41113;41.882;12.530;2023-07-08T13:19:46;101260.38;;;34.32;42.43
54948;BME280;41113;41.882;12.530;2023-07-08T13:22:15;101265.13;;;34.32;42.40
54948;BME280;41113;41.882;12.530;2023-07-08T13:24:41;101260.38;;;34.27;42.33
54948;BME280;41113;41.882;12.530;2023-07-08T13:27:14;101263.75;;;34.35;42.61
54948;BME280;41113;41.882;12.530;2023-07-08T13:29:41;101257.59;;;34.27;42.80
54948;BME280;41113;41.882;12.530;2023-07-08T13:32:09;101262.91;;;34.24;42.97
54948;BME280;41113;41.882;12.530;2023-07-08T13:34:35;101262.06;;;34.23;42.89
54948;BME280;41113;41.882;12.530;2023-07-08T13:37:00;101267.63;;;34.23;42.69
54948;BME280;41113;41.882;12.530;2023-07-08T13:39:32;101257.88;;;34.26;42.44
54948;BME280;41113;41.882;12.530;2023-07-08T13:41:59;101257.88;;;34.26;42.56